Terminal Aerodrome Forecast
Issued by NWS

Home | Current Version | Previous Version | Text Only | Print | Product List | Glossary On
Versions: 1 2 3 4 5 6 7 8 9 10 11 12 13
000
FTUS42 KGSP 191120
TAFAND
TAF
KAND 191120Z 1912/2012 00000KT P6SM FEW250
     FM191400 06006KT P6SM SCT250
     FM192000 06003KT P6SM FEW070 BKN250
     FM200700 07003KT P6SM -RA BKN060
     FM201100 06003KT P6SM -RA OVC050=

USA.gov is the U.S. government's official web portal to all federal, state and local government web resources and services.